Caden Foss — WDJ6190 — position and weather

sailwx.info

Track history (hours):
 
Tides and Currents Weather Stations Pressure Air Temp Water Temp Dewpoint Dewpoint Depression Visibility Wind Speed Wind Dir Waves Ship Positions

Caden Foss

Owner: Foss Maritime Co, Seattle, WA. More information available from US FCC via Universal Licensing System and Coast Guard Vessel Documentation Center.

Last reported at 2017-Dec-16 12:30 UTC. Time now 2017-Dec-16 12:47 UTC.
Position N 37°54' W 122°22'.

Length 34 m; draft 6.1 m.

Type: Tug. MMSI: 367795270.

Date/timePositionNaut miles runAvg speedWind from/ knotsBaromVisibWave heightAir tempDewpointWater temp
2017-Dec-16 12:30N 37°54' W 122°22'0 0.8
2017-Dec-16 12:00N 37°54' W 122°23'4 8.1
2017-Dec-16 11:30N 37°52' W 122°27'4 7.5
2017-Dec-16 11:00N 37°49' W 122°30'1 1.2
2017-Dec-16 10:30N 37°49' W 122°31'2 3.3
2017-Dec-16 10:00N 37°49' W 122°29'4 7.9
2017-Dec-16 09:30N 37°52' W 122°25'3 5.2
2017-Dec-16 08:59N 37°54' W 122°26'1 2.0
2017-Dec-16 08:30N 37°55' W 122°25'0 0.7
2017-Dec-16 07:57N 37°55' W 122°25'0 0.3
2017-Dec-16 07:27N 37°55' W 122°25'0 0.0
2017-Dec-16 07:00N 37°55' W 122°25'0 0.0
2017-Dec-16 06:27N 37°55' W 122°25'0 0.0
2017-Dec-16 05:57N 37°55' W 122°25'0 0.0
2017-Dec-16 05:30N 37°55' W 122°25'0 0.0
2017-Dec-16 05:00N 37°55' W 122°25'0 0.0
2017-Dec-16 04:30N 37°55' W 122°25'0 0.0
2017-Dec-16 04:00N 37°55' W 122°25'0 0.0
2017-Dec-16 03:30N 37°55' W 122°25'0 0.0
2017-Dec-16 03:00N 37°55' W 122°25'0 0.0
2017-Dec-16 02:30N 37°55' W 122°25'0 0.0
2017-Dec-16 02:00N 37°55' W 122°25'0 0.0
2017-Dec-16 01:30N 37°55' W 122°25'0 0.0
2017-Dec-16 01:00N 37°55' W 122°25'2 4.0
2017-Dec-16 00:30N 37°54' W 122°22'1 1.6
2017-Dec-16 00:00N 37°55' W 122°22'0 0.7
2017-Dec-15 23:29N 37°55' W 122°22'2 3.8
2017-Dec-15 23:00N 37°54' W 122°24'2 3.6
2017-Dec-15 22:30N 37°53' W 122°25'4 7.7
2017-Dec-15 22:00N 37°49' W 122°26'4 8.6
2017-Dec-15 21:30N 37°48' W 122°31'1 2.3
2017-Dec-15 21:01N 37°49' W 122°31'0 0.3
2017-Dec-15 20:31N 37°49' W 122°31'0 0.8
2017-Dec-15 20:00N 37°49' W 122°31'3 5.1
2017-Dec-15 19:30N 37°50' W 122°28'3 5.3
2017-Dec-15 19:00N 37°52' W 122°27'2 4.9
2017-Dec-15 18:30N 37°54' W 122°26'1 2.5
2017-Dec-15 17:58N 37°56' W 122°25'0 0.3
2017-Dec-15 17:28N 37°56' W 122°25'2 4.3
2017-Dec-15 17:00N 37°54' W 122°25'4 7.2
2017-Dec-15 16:30N 37°50' W 122°24'3 5.3
2017-Dec-15 16:00N 37°49' W 122°27'3 5.9
2017-Dec-15 15:30N 37°48' W 122°31'1 1.3
2017-Dec-15 15:00N 37°48' W 122°30'1 1.6
2017-Dec-15 14:30N 37°48' W 122°31'1 1.9
2017-Dec-15 14:00N 37°48' W 122°30'2 4.3
2017-Dec-15 13:30N 37°49' W 122°27'3 5.0
2017-Dec-15 13:00N 37°49' W 122°24'4 8.3
2017-Dec-15 12:30N 37°48' W 122°19'1 2.0
2017-Dec-15 12:00N 37°48' W 122°18'1 1.8
2017-Dec-15 11:30N 37°48' W 122°19'0 0.1
2017-Dec-15 11:00N 37°48' W 122°19'1 2.4
2017-Dec-15 10:31N 37°48' W 122°20'510.7
2017-Dec-15 10:00N 37°52' W 122°24'3 5.7
2017-Dec-15 09:30N 37°55' W 122°25'0 0.0
2017-Dec-15 08:57N 37°55' W 122°25'0 0.1
2017-Dec-15 08:30N 37°55' W 122°24'0 0.0
2017-Dec-15 08:00N 37°55' W 122°24'0 0.1
2017-Dec-15 07:27N 37°55' W 122°25'0 0.0
2017-Dec-15 06:57N 37°55' W 122°25'0 0.0
2017-Dec-15 06:30N 37°55' W 122°25'0 0.0
2017-Dec-15 06:00N 37°55' W 122°25'0 0.2
2017-Dec-15 05:25N 37°55' W 122°25'0 0.0
2017-Dec-15 05:00N 37°55' W 122°25'0 0.7
2017-Dec-15 04:30N 37°55' W 122°25'2 4.7
2017-Dec-15 04:00N 37°53' W 122°25'8 5.3
2017-Dec-15 02:30N 37°48' W 122°17'1 0.8
2017-Dec-15 01:00N 37°48' W 122°19'0 0.5
2017-Dec-15 00:31N 37°48' W 122°19'7 1.2
2017-Dec-14 18:30N 37°54' W 122°22'0 0.0
2017-Dec-14 17:51N 37°54' W 122°22'0 0.0
2017-Dec-14 17:30N 37°54' W 122°22'0 0.0
2017-Dec-14 16:59N 37°54' W 122°22'0 0.8
2017-Dec-14 16:30N 37°54' W 122°23'3 6.1
2017-Dec-14 16:00N 37°51' W 122°23'6 6.1
2017-Dec-14 15:00N 37°48' W 122°17'1 1.6
2017-Dec-14 14:30N 37°48' W 122°18'0 0.9
2017-Dec-14 14:00N 37°48' W 122°19'0 0.0
2017-Dec-14 13:31N 37°48' W 122°19'1 2.2
2017-Dec-14 13:00N 37°49' W 122°20'0 0.0
2017-Dec-14 12:30N 37°49' W 122°20'0 0.0
2017-Dec-14 12:01N 37°49' W 122°20'0 0.0
2017-Dec-14 11:31N 37°49' W 122°20'0 0.0
2017-Dec-14 11:01N 37°49' W 122°20'0 0.1
2017-Dec-14 10:30N 37°49' W 122°20'0 0.0
2017-Dec-14 10:00N 37°49' W 122°20'0 0.0
2017-Dec-14 09:30N 37°49' W 122°20'0 0.0
2017-Dec-14 09:00N 37°49' W 122°20'0 0.0
2017-Dec-14 08:30N 37°49' W 122°20'0 0.0
2017-Dec-14 08:00N 37°49' W 122°20'0 0.0
2017-Dec-14 07:31N 37°49' W 122°20'0 0.0
2017-Dec-14 07:00N 37°49' W 122°20'0 0.0
2017-Dec-14 06:30N 37°49' W 122°20'0 0.0
2017-Dec-14 06:00N 37°49' W 122°20'0 0.1
2017-Dec-14 05:30N 37°49' W 122°20'0 0.3
2017-Dec-14 05:00N 37°49' W 122°20'2 3.4
2017-Dec-14 04:30N 37°49' W 122°22'0 0.0
2017-Dec-14 04:00N 37°49' W 122°22'4 7.6
2017-Dec-14 03:30N 37°52' W 122°24'3 5.3
2017-Dec-14 03:00N 37°54' W 122°22'1 1.7
2017-Dec-14 02:29N 37°55' W 122°22'0 0.1
2017-Dec-14 02:00N 37°55' W 122°22'1 1.1
2017-Dec-14 01:30N 37°55' W 122°22'0 0.9
2017-Dec-14 01:00N 37°54' W 122°22'3 5.1
2017-Dec-14 00:30N 37°55' W 122°25'3 5.2
2017-Dec-14 00:01N 37°53' W 122°25'3 5.1
2017-Dec-13 23:30N 37°54' W 122°22'0 0.0
2017-Dec-13 23:00N 37°54' W 122°22'0 0.0
2017-Dec-13 22:27N 37°54' W 122°22'0 0.0
2017-Dec-13 22:00N 37°54' W 122°22'0 0.0
2017-Dec-13 21:30N 37°54' W 122°22'0 0.0
2017-Dec-13 21:00N 37°54' W 122°22'0 0.0
2017-Dec-13 20:30N 37°54' W 122°22'0 0.0
2017-Dec-13 20:00N 37°54' W 122°22'0 0.0
2017-Dec-13 19:27N 37°54' W 122°22'0 0.0
2017-Dec-13 18:57N 37°54' W 122°22'0 0.0
2017-Dec-13 18:18N 37°54' W 122°22'0 0.0
2017-Dec-13 18:00N 37°54' W 122°22'2 3.3
2017-Dec-13 17:30N 37°55' W 122°24'1 1.3
2017-Dec-13 16:58N 37°55' W 122°25'0 0.0
2017-Dec-13 16:28N 37°55' W 122°25'0 0.0
2017-Dec-13 15:58N 37°55' W 122°25'1 1.4
2017-Dec-13 15:29N 37°55' W 122°25'510.4
2017-Dec-13 15:00N 37°50' W 122°22'4 7.9
2017-Dec-13 14:30N 37°48' W 122°19'0 0.9
2017-Dec-13 14:00N 37°48' W 122°18'0 0.1
2017-Dec-13 13:31N 37°48' W 122°18'0 0.8
2017-Dec-13 13:01N 37°48' W 122°18'3 6.6
2017-Dec-13 12:31N 37°48' W 122°23'2 3.2
2017-Dec-13 12:01N 37°49' W 122°21'0 1.0
2017-Dec-13 11:30N 37°49' W 122°22'0 0.0
2017-Dec-13 11:00N 37°49' W 122°22'0 0.0
2017-Dec-13 10:30N 37°49' W 122°22'0 0.0
2017-Dec-13 10:01N 37°49' W 122°22'0 0.0
2017-Dec-13 09:30N 37°49' W 122°22'0 0.0
2017-Dec-13 09:00N 37°49' W 122°22'0 0.0
2017-Dec-13 08:30N 37°49' W 122°22'0 0.0
2017-Dec-13 08:00N 37°49' W 122°22'0 0.0
2017-Dec-13 07:30N 37°49' W 122°22'2 3.4
2017-Dec-13 07:01N 37°48' W 122°20'1 2.4
2017-Dec-13 06:31N 37°48' W 122°19'1 2.2
2017-Dec-13 06:01N 37°48' W 122°17'1 2.5
2017-Dec-13 05:31N 37°48' W 122°19'2 5.0
2017-Dec-13 05:00N 37°48' W 122°22'1 1.1
2017-Dec-13 04:30N 37°48' W 122°22'1 3.0
2017-Dec-13 04:00N 37°48' W 122°21'3 6.5
2017-Dec-13 03:30N 37°51' W 122°23'5 9.4
2017-Dec-13 03:00N 37°55' W 122°25'0 0.7
2017-Dec-13 02:26N 37°56' W 122°25'1 1.2
2017-Dec-13 01:59N 37°55' W 122°25'3 6.9
2017-Dec-13 01:30N 37°52' W 122°25'3 7.0
2017-Dec-13 01:01N 37°49' W 122°27'3 5.4
2017-Dec-13 00:31N 37°48' W 122°30'0 0.2
2017-Dec-13 00:00N 37°48' W 122°30'0 1.0
2017-Dec-12 23:30N 37°48' W 122°30'4 7.2
2017-Dec-12 23:00N 37°49' W 122°25'3 4.9
2017-Dec-12 22:25N 37°49' W 122°22'0 0.1
2017-Dec-12 21:58N 37°49' W 122°22'0 0.0
2017-Dec-12 21:25N 37°49' W 122°22'0 0.1
2017-Dec-12 20:58N 37°49' W 122°22'0 0.0
2017-Dec-12 20:28N 37°49' W 122°22'0 0.0
2017-Dec-12 19:58N 37°49' W 122°22'0 0.0
2017-Dec-12 19:29N 37°49' W 122°22'2 4.1
2017-Dec-12 19:01N 37°48' W 122°20'2 3.7
2017-Dec-12 18:31N 37°48' W 122°18'0 0.5
2017-Dec-12 18:00N 37°48' W 122°17'0 0.0
2017-Dec-12 17:31N 37°48' W 122°17'0 0.0
2017-Dec-12 17:00N 37°48' W 122°17'0 0.0
2017-Dec-12 16:31N 37°48' W 122°17'4 8.2
2017-Dec-12 16:00N 37°50' W 122°22'5 9.3
2017-Dec-12 15:31N 37°53' W 122°26'2 3.1
2017-Dec-12 15:01N 37°55' W 122°25'1 1.4
2017-Dec-12 14:22N 37°56' W 122°25'0 1.2
2017-Dec-12 13:59N 37°55' W 122°25'0 0.0
2017-Dec-12 13:29N 37°55' W 122°25'0 0.0
2017-Dec-12 12:59N 37°55' W 122°25'0 0.0
2017-Dec-12 12:11N 37°55' W 122°25'0 0.0
2017-Dec-12 11:56N 37°55' W 122°25'0 0.0
2017-Dec-12 11:26N 37°55' W 122°25'0 0.0
2017-Dec-12 10:59N 37°55' W 122°25'0 0.0
2017-Dec-12 10:29N 37°55' W 122°25'0 0.0
2017-Dec-12 09:56N 37°55' W 122°25'0 0.0
2017-Dec-12 09:29N 37°55' W 122°25'0 0.0
2017-Dec-12 08:59N 37°55' W 122°25'0 0.0
2017-Dec-12 08:29N 37°55' W 122°25'0 0.0
2017-Dec-12 07:59N 37°55' W 122°25'0 0.0
2017-Dec-12 07:29N 37°55' W 122°25'0 0.0
2017-Dec-12 06:59N 37°55' W 122°25'0 0.0
2017-Dec-12 06:26N 37°55' W 122°25'0 0.0
2017-Dec-12 05:59N 37°55' W 122°25'0 0.0
2017-Dec-12 05:26N 37°55' W 122°25'0 0.0
2017-Dec-12 04:56N 37°55' W 122°25'0 0.0
2017-Dec-12 04:26N 37°55' W 122°25'0 0.0
2017-Dec-12 03:59N 37°55' W 122°25'0 0.0
2017-Dec-12 03:29N 37°55' W 122°25'0 0.0
2017-Dec-12 02:59N 37°55' W 122°25'0 0.0
2017-Dec-12 02:29N 37°55' W 122°25'0 0.0
2017-Dec-12 01:56N 37°55' W 122°25'0 0.0
2017-Dec-12 01:29N 37°55' W 122°25'0 0.0
2017-Dec-12 00:59N 37°55' W 122°25'0 0.0
2017-Dec-12 00:23N 37°55' W 122°25'0 0.0
2017-Dec-11 23:59N 37°55' W 122°25'0 0.0
2017-Dec-11 23:29N 37°55' W 122°25'0 0.0
2017-Dec-11 22:59N 37°55' W 122°25'0 0.0
2017-Dec-11 22:23N 37°55' W 122°25'0 0.0
2017-Dec-11 21:53N 37°55' W 122°25'0 0.0
2017-Dec-11 21:29N 37°55' W 122°25'0 0.0
2017-Dec-11 20:56N 37°55' W 122°25'0 0.0
2017-Dec-11 20:29N 37°55' W 122°25'0 0.0
2017-Dec-11 19:59N 37°55' W 122°25'0 0.0
2017-Dec-11 19:26N 37°55' W 122°25'0 0.0
2017-Dec-11 18:59N 37°55' W 122°25'0 0.0
2017-Dec-11 18:29N 37°55' W 122°25'0 0.0
2017-Dec-11 17:59N 37°55' W 122°25'0 0.0
2017-Dec-11 17:29N 37°55' W 122°25'0 0.0
2017-Dec-11 16:59N 37°55' W 122°25'3 5.7
2017-Dec-11 16:31N 37°53' W 122°25'510.2
2017-Dec-11 16:00N 37°49' W 122°21'1 1.8
2017-Dec-11 15:31N 37°49' W 122°20'2 3.8
2017-Dec-11 15:01N 37°48' W 122°22'3 6.7
2017-Dec-11 14:31N 37°48' W 122°18'0 1.0
2017-Dec-11 14:01N 37°48' W 122°17'1 2.8
2017-Dec-11 13:31N 37°48' W 122°19'3 6.0
2017-Dec-11 13:00N 37°47' W 122°23'2 3.2
2017-Dec-11 12:30N 37°49' W 122°24'1 1.7
2017-Dec-11 12:01N 37°49' W 122°23'5 9.5
2017-Dec-11 11:30N 37°54' W 122°25'2 3.1
2017-Dec-11 11:00N 37°55' W 122°25'0 0.0
2017-Dec-11 10:28N 37°55' W 122°25'0 0.0
2017-Dec-11 10:01N 37°55' W 122°25'0 0.0
2017-Dec-11 09:31N 37°55' W 122°25'0 0.0
2017-Dec-11 09:00N 37°55' W 122°25'0 0.0
2017-Dec-11 08:30N 37°55' W 122°25'0 0.0
2017-Dec-11 08:00N 37°55' W 122°25'0 0.0
2017-Dec-11 07:27N 37°55' W 122°25'0 0.0
2017-Dec-11 07:00N 37°55' W 122°25'0 0.0
2017-Dec-11 06:30N 37°55' W 122°25'0 0.0
2017-Dec-11 06:01N 37°55' W 122°25'0 0.0
2017-Dec-11 05:30N 37°55' W 122°25'0 0.0
2017-Dec-11 05:00N 37°55' W 122°25'0 0.0
2017-Dec-11 04:28N 37°55' W 122°25'0 0.0
2017-Dec-11 03:57N 37°55' W 122°25'0 0.0
2017-Dec-11 03:30N 37°55' W 122°25'0 0.0
2017-Dec-11 03:01N 37°55' W 122°25'0 0.0
2017-Dec-11 02:30N 37°55' W 122°25'0 0.0
2017-Dec-11 02:00N 37°55' W 122°25'0 0.0
2017-Dec-11 01:30N 37°55' W 122°25'0 0.6
2017-Dec-11 01:00N 37°56' W 122°25'1 1.6
2017-Dec-11 00:30N 37°55' W 122°25'1 1.2
2017-Dec-10 23:50N 37°56' W 122°25'0 0.1
2017-Dec-10 23:30N 37°56' W 122°25'0 0.8
2017-Dec-10 22:58N 37°55' W 122°25'0 0.0
2017-Dec-10 22:25N 37°55' W 122°25'0 0.0
2017-Dec-10 21:58N 37°55' W 122°25'0 0.0
2017-Dec-10 21:28N 37°55' W 122°25'0 0.0
2017-Dec-10 20:58N 37°55' W 122°25'0 0.0
2017-Dec-10 20:28N 37°55' W 122°25'0 0.0
2017-Dec-10 19:58N 37°55' W 122°25'0 0.0
2017-Dec-10 19:28N 37°55' W 122°25'0 0.0
2017-Dec-10 18:55N 37°55' W 122°25'0 0.0
2017-Dec-10 18:28N 37°55' W 122°25'0 0.0
2017-Dec-10 17:58N 37°55' W 122°25'0 0.0
2017-Dec-10 17:28N 37°55' W 122°25'0 0.0
2017-Dec-10 16:58N 37°55' W 122°25'0 0.0
2017-Dec-10 16:28N 37°55' W 122°25'0 0.0
2017-Dec-10 15:58N 37°55' W 122°25'0 0.0
2017-Dec-10 15:30N 37°55' W 122°25'0 0.2
2017-Dec-10 15:01N 37°55' W 122°24'5 9.2
2017-Dec-10 14:30N 37°51' W 122°23'4 7.8
2017-Dec-10 14:00N 37°48' W 122°20'0 0.1
2017-Dec-10 13:30N 37°48' W 122°19'2 3.0
2017-Dec-10 13:00N 37°48' W 122°18'1 1.7
2017-Dec-10 12:30N 37°48' W 122°19'2 4.8
2017-Dec-10 12:00N 37°48' W 122°22'3 5.1
2017-Dec-10 11:30N 37°46' W 122°21'2 3.3
2017-Dec-10 11:00N 37°44' W 122°20'2 4.1
2017-Dec-10 10:31N 37°46' W 122°22'511.0
2017-Dec-10 10:00N 37°51' W 122°24'4 9.0
2017-Dec-10 09:30N 37°55' W 122°25'1 0.8
2017-Dec-10 08:47N 37°55' W 122°25'0 0.0
2017-Dec-10 08:28N 37°55' W 122°25'0 0.1
2017-Dec-10 08:00N 37°55' W 122°25'0 0.0
2017-Dec-10 07:30N 37°55' W 122°25'0 0.0
2017-Dec-10 07:00N 37°55' W 122°25'0 0.0
2017-Dec-10 06:30N 37°55' W 122°25'0 0.0
2017-Dec-10 06:00N 37°55' W 122°25'0 0.0
2017-Dec-10 05:24N 37°55' W 122°25'0 0.0
2017-Dec-10 04:54N 37°55' W 122°25'0 0.0
2017-Dec-10 04:30N 37°55' W 122°25'0 0.0
2017-Dec-10 04:00N 37°55' W 122°25'0 0.0
2017-Dec-10 03:30N 37°55' W 122°25'0 0.0
2017-Dec-10 02:48N 37°55' W 122°25'0 0.0
2017-Dec-10 02:30N 37°55' W 122°25'0 0.0
2017-Dec-10 02:00N 37°55' W 122°25'0 0.0
2017-Dec-10 01:24N 37°55' W 122°25'0 0.0
2017-Dec-10 01:00N 37°55' W 122°25'0 0.0
2017-Dec-10 00:27N 37°55' W 122°25'0 0.0
2017-Dec-10 00:00N 37°55' W 122°25'0 0.0
2017-Dec-09 23:30N 37°55' W 122°25'0 0.0
2017-Dec-09 22:57N 37°55' W 122°25'0 0.0
2017-Dec-09 22:30N 37°55' W 122°25'0 0.0
2017-Dec-09 22:00N 37°55' W 122°25'0 0.4
2017-Dec-09 21:03N 37°56' W 122°25'0 0.4
2017-Dec-09 20:45N 37°55' W 122°25'0 2.0
2017-Dec-09 20:30N 37°55' W 122°25'2 3.9
2017-Dec-09 20:00N 37°53' W 122°25'3 5.4
2017-Dec-09 19:31N 37°51' W 122°27'2 4.4
2017-Dec-09 19:00N 37°49' W 122°28'4 7.8
2017-Dec-09 18:30N 37°53' W 122°26'3 5.3
2017-Dec-09 17:57N 37°55' W 122°25'0 0.0
2017-Dec-09 17:30N 37°55' W 122°25'0 0.0
2017-Dec-09 16:57N 37°55' W 122°25'0 0.0
2017-Dec-09 16:30N 37°55' W 122°25'0 0.0
2017-Dec-09 16:00N 37°55' W 122°25'0 0.0
2017-Dec-09 15:15N 37°55' W 122°25'0 0.0
2017-Dec-09 14:57N 37°55' W 122°25'0 0.0
2017-Dec-09 14:30N 37°55' W 122°25'0 0.0
2017-Dec-09 13:57N 37°55' W 122°25'0 0.0
2017-Dec-09 13:30N 37°55' W 122°25'0 0.0
2017-Dec-09 13:00N 37°55' W 122°25'0 0.0
2017-Dec-09 12:30N 37°55' W 122°25'0 0.0
2017-Dec-09 12:00N 37°55' W 122°25'0 0.0
2017-Dec-09 11:30N 37°55' W 122°25'0 0.0
2017-Dec-09 11:00N 37°55' W 122°25'0 0.0
2017-Dec-09 10:30N 37°55' W 122°25'0 0.0
2017-Dec-09 10:00N 37°55' W 122°25'0 0.0
2017-Dec-09 09:30N 37°55' W 122°25'0 0.0
2017-Dec-09 08:57N 37°55' W 122°25'0 0.0
2017-Dec-09 08:30N 37°55' W 122°25'0 0.0
2017-Dec-09 08:00N 37°55' W 122°25'0 0.0
2017-Dec-09 07:30N 37°55' W 122°25'0 0.0
2017-Dec-09 07:00N 37°55' W 122°25'0 0.0
2017-Dec-09 06:30N 37°55' W 122°25'0 0.0
2017-Dec-09 05:57N 37°55' W 122°25'0 0.0
2017-Dec-09 05:30N 37°55' W 122°25'0 0.0
2017-Dec-09 05:00N 37°55' W 122°25'0 0.0
2017-Dec-09 04:30N 37°55' W 122°25'0 0.0
2017-Dec-09 04:00N 37°55' W 122°25'0 0.0
2017-Dec-09 03:30N 37°55' W 122°25'0 0.0
2017-Dec-09 03:00N 37°55' W 122°25'0 0.0
2017-Dec-09 02:30N 37°55' W 122°25'0 0.0
2017-Dec-09 01:57N 37°55' W 122°25'0 0.0
2017-Dec-09 01:30N 37°55' W 122°25'0 0.0
2017-Dec-09 01:00N 37°55' W 122°25'0 0.0
2017-Dec-09 00:31N 37°55' W 122°25'0 0.0
2017-Dec-09 00:01N 37°55' W 122°25'0 0.0
2017-Dec-08 23:31N 37°55' W 122°25'0 0.1
2017-Dec-08 23:01N 37°55' W 122°25'1 2.0
2017-Dec-08 22:30N 37°55' W 122°25'1 2.3
2017-Dec-08 22:00N 37°56' W 122°25'0 0.7
2017-Dec-08 21:30N 37°55' W 122°25'1 1.7
2017-Dec-08 21:01N 37°55' W 122°24'5 9.5
2017-Dec-08 20:31N 37°50' W 122°22'3 5.5
2017-Dec-08 20:01N 37°49' W 122°19'2 4.7
2017-Dec-08 19:31N 37°48' W 122°17'2 3.3
2017-Dec-08 19:01N 37°47' W 122°15'1 2.1
2017-Dec-08 18:30N 37°47' W 122°16'2 5.0
2017-Dec-08 18:01N 37°48' W 122°19'3 6.2
2017-Dec-08 17:31N 37°48' W 122°23'1 1.6
2017-Dec-08 17:01N 37°48' W 122°24'0 0.0
2017-Dec-08 16:30N 37°48' W 122°24'0 0.0
2017-Dec-08 16:00N 37°48' W 122°24'0 0.0
2017-Dec-08 15:30N 37°48' W 122°24'0 0.0
2017-Dec-08 15:00N 37°48' W 122°24'0 0.4
2017-Dec-08 14:31N 37°48' W 122°24'2 3.5
2017-Dec-08 14:01N 37°49' W 122°26'2 4.8
2017-Dec-08 13:30N 37°51' W 122°25'4 7.1
2017-Dec-08 13:01N 37°54' W 122°23'1 1.2
2017-Dec-08 12:29N 37°54' W 122°22'0 0.0
2017-Dec-08 11:59N 37°54' W 122°22'0 0.0
2017-Dec-08 11:29N 37°54' W 122°22'0 0.0
2017-Dec-08 10:59N 37°54' W 122°22'0 0.0
2017-Dec-08 10:29N 37°54' W 122°22'0 0.0
2017-Dec-08 09:59N 37°54' W 122°22'0 0.0
2017-Dec-08 09:29N 37°54' W 122°22'0 0.0
2017-Dec-08 08:59N 37°54' W 122°22'0 0.0
2017-Dec-08 08:29N 37°54' W 122°22'0 0.0
2017-Dec-08 07:59N 37°54' W 122°22'0 0.0
2017-Dec-08 07:26N 37°54' W 122°22'0 0.0
2017-Dec-08 06:50N 37°54' W 122°22'0 0.0
2017-Dec-08 06:26N 37°54' W 122°22'0 0.0
2017-Dec-08 03:56N 37°54' W 122°22'0 0.0
2017-Dec-08 03:11N 37°54' W 122°22'0 0.0
2017-Dec-08 02:59N 37°54' W 122°22'0 0.0
2017-Dec-08 02:26N 37°54' W 122°22'0 0.0
2017-Dec-08 01:53N 37°54' W 122°22'0 0.0
2017-Dec-08 01:26N 37°54' W 122°22'0 0.0
2017-Dec-08 00:59N 37°54' W 122°22'0 0.0
2017-Dec-08 00:26N 37°54' W 122°22'0 0.0
2017-Dec-07 23:50N 37°54' W 122°22'0 0.0
2017-Dec-07 23:14N 37°54' W 122°22'0 0.0
2017-Dec-07 22:59N 37°54' W 122°22'0 0.0
2017-Dec-07 21:50N 37°54' W 122°22'0 0.0
2017-Dec-07 20:29N 37°54' W 122°22'0 0.0
2017-Dec-07 19:56N 37°54' W 122°22'0 0.0
2017-Dec-07 19:26N 37°54' W 122°22'0 0.0
2017-Dec-07 18:56N 37°54' W 122°22'0 0.0
2017-Dec-07 18:26N 37°54' W 122°22'0 0.0
2017-Dec-07 17:56N 37°54' W 122°22'0 0.0
2017-Dec-07 17:20N 37°54' W 122°22'0 0.0
2017-Dec-07 16:59N 37°54' W 122°22'0 0.0
2017-Dec-07 16:26N 37°54' W 122°22'0 0.0
2017-Dec-07 15:53N 37°54' W 122°22'0 0.0
2017-Dec-07 15:08N 37°54' W 122°22'0 0.0
2017-Dec-07 14:56N 37°54' W 122°22'0 0.0
2017-Dec-07 14:29N 37°54' W 122°22'0 0.0
2017-Dec-07 13:45N 37°54' W 122°22'1 4.6
2017-Dec-07 13:30N 37°54' W 122°24'5 9.3
2017-Dec-07 13:00N 37°51' W 122°28'3 6.7
2017-Dec-07 12:30N 37°49' W 122°31'2 3.9
2017-Dec-07 12:00N 37°49' W 122°29'4 7.8
2017-Dec-07 11:30N 37°52' W 122°25'4 7.1
2017-Dec-07 11:00N 37°55' W 122°25'1 1.0
2017-Dec-07 10:30N 37°55' W 122°25'0 0.1
2017-Dec-07 10:00N 37°55' W 122°25'0 0.0
2017-Dec-07 09:30N 37°55' W 122°25'0 0.1
2017-Dec-07 09:00N 37°55' W 122°25'0 0.2
2017-Dec-07 08:30N 37°55' W 122°25'0 0.0
2017-Dec-07 07:59N 37°55' W 122°25'0 0.0
2017-Dec-07 07:29N 37°55' W 122°25'0 0.0
2017-Dec-07 06:41N 37°55' W 122°25'0 0.0
2017-Dec-07 06:23N 37°55' W 122°25'0 0.0
2017-Dec-07 05:56N 37°55' W 122°25'0 0.0
2017-Dec-07 05:29N 37°55' W 122°25'0 0.0
2017-Dec-07 04:50N 37°55' W 122°25'0 0.0
2017-Dec-07 04:29N 37°55' W 122°25'2 4.7
2017-Dec-07 04:00N 37°53' W 122°25'510.8
2017-Dec-07 03:30N 37°48' W 122°22'2 4.3
2017-Dec-07 02:59N 37°46' W 122°20'0 0.0
2017-Dec-07 02:30N 37°46' W 122°20'0 0.0
2017-Dec-07 02:00N 37°46' W 122°20'0 0.0
2017-Dec-07 01:30N 37°46' W 122°20'0 0.0
2017-Dec-07 01:00N 37°46' W 122°20'2 3.7
2017-Dec-07 00:30N 37°48' W 122°19'0 0.9
2017-Dec-07 00:00N 37°48' W 122°19'1 2.6
2017-Dec-06 23:30N 37°48' W 122°17'2 3.8
2017-Dec-06 23:00N 37°48' W 122°20'3 5.9
2017-Dec-06 22:30N 37°49' W 122°23'1 3.0
2017-Dec-06 22:01N 37°48' W 122°22'1 2.2
2017-Dec-06 21:30N 37°49' W 122°22'0 0.0
2017-Dec-06 21:00N 37°49' W 122°22'  
Track history (hours):
 
Tides and Currents Weather Stations Pressure Air Temp Water Temp Dewpoint Dewpoint Depression Visibility Wind Speed Wind Dir Waves Ship Positions

Caden Foss

Owner: Foss Maritime Co, Seattle, WA. More information available from US FCC via Universal Licensing System and Coast Guard Vessel Documentation Center.

Last reported at 2017-Dec-16 12:30 UTC. Time now 2017-Dec-16 12:47 UTC.
Position N 37°54' W 122°22'.

Length 34 m; draft 6.1 m.

Type: Tug. MMSI: 367795270.

Date/timePositionNaut miles runAvg speedWind from/ knotsBaromVisibWave heightAir tempDewpointWater temp
2017-Dec-16 12:30N 37°54' W 122°22'0 0.8
2017-Dec-16 12:00N 37°54' W 122°23'4 8.1
2017-Dec-16 11:30N 37°52' W 122°27'4 7.5
2017-Dec-16 11:00N 37°49' W 122°30'1 1.2
2017-Dec-16 10:30N 37°49' W 122°31'2 3.3
2017-Dec-16 10:00N 37°49' W 122°29'4 7.9
2017-Dec-16 09:30N 37°52' W 122°25'3 5.2
2017-Dec-16 08:59N 37°54' W 122°26'1 2.0
2017-Dec-16 08:30N 37°55' W 122°25'0 0.7
2017-Dec-16 07:57N 37°55' W 122°25'0 0.3
2017-Dec-16 07:27N 37°55' W 122°25'0 0.0
2017-Dec-16 07:00N 37°55' W 122°25'0 0.0
2017-Dec-16 06:27N 37°55' W 122°25'0 0.0
2017-Dec-16 05:57N 37°55' W 122°25'0 0.0
2017-Dec-16 05:30N 37°55' W 122°25'0 0.0
2017-Dec-16 05:00N 37°55' W 122°25'0 0.0
2017-Dec-16 04:30N 37°55' W 122°25'0 0.0
2017-Dec-16 04:00N 37°55' W 122°25'0 0.0
2017-Dec-16 03:30N 37°55' W 122°25'0 0.0
2017-Dec-16 03:00N 37°55' W 122°25'0 0.0
2017-Dec-16 02:30N 37°55' W 122°25'0 0.0
2017-Dec-16 02:00N 37°55' W 122°25'0 0.0
2017-Dec-16 01:30N 37°55' W 122°25'0 0.0
2017-Dec-16 01:00N 37°55' W 122°25'2 4.0
2017-Dec-16 00:30N 37°54' W 122°22'1 1.6
2017-Dec-16 00:00N 37°55' W 122°22'0 0.7
2017-Dec-15 23:29N 37°55' W 122°22'2 3.8
2017-Dec-15 23:00N 37°54' W 122°24'2 3.6
2017-Dec-15 22:30N 37°53' W 122°25'4 7.7
2017-Dec-15 22:00N 37°49' W 122°26'4 8.6
2017-Dec-15 21:30N 37°48' W 122°31'1 2.3
2017-Dec-15 21:01N 37°49' W 122°31'0 0.3
2017-Dec-15 20:31N 37°49' W 122°31'0 0.8
2017-Dec-15 20:00N 37°49' W 122°31'3 5.1
2017-Dec-15 19:30N 37°50' W 122°28'3 5.3
2017-Dec-15 19:00N 37°52' W 122°27'2 4.9
2017-Dec-15 18:30N 37°54' W 122°26'1 2.5
2017-Dec-15 17:58N 37°56' W 122°25'0 0.3
2017-Dec-15 17:28N 37°56' W 122°25'2 4.3
2017-Dec-15 17:00N 37°54' W 122°25'4 7.2
2017-Dec-15 16:30N 37°50' W 122°24'3 5.3
2017-Dec-15 16:00N 37°49' W 122°27'3 5.9
2017-Dec-15 15:30N 37°48' W 122°31'1 1.3
2017-Dec-15 15:00N 37°48' W 122°30'1 1.6
2017-Dec-15 14:30N 37°48' W 122°31'1 1.9
2017-Dec-15 14:00N 37°48' W 122°30'2 4.3
2017-Dec-15 13:30N 37°49' W 122°27'3 5.0
2017-Dec-15 13:00N 37°49' W 122°24'4 8.3
2017-Dec-15 12:30N 37°48' W 122°19'1 2.0
2017-Dec-15 12:00N 37°48' W 122°18'1 1.8
2017-Dec-15 11:30N 37°48' W 122°19'0 0.1
2017-Dec-15 11:00N 37°48' W 122°19'1 2.4
2017-Dec-15 10:31N 37°48' W 122°20'510.7
2017-Dec-15 10:00N 37°52' W 122°24'3 5.7
2017-Dec-15 09:30N 37°55' W 122°25'0 0.0
2017-Dec-15 08:57N 37°55' W 122°25'0 0.1
2017-Dec-15 08:30N 37°55' W 122°24'0 0.0
2017-Dec-15 08:00N 37°55' W 122°24'0 0.1
2017-Dec-15 07:27N 37°55' W 122°25'0 0.0
2017-Dec-15 06:57N 37°55' W 122°25'0 0.0
2017-Dec-15 06:30N 37°55' W 122°25'0 0.0
2017-Dec-15 06:00N 37°55' W 122°25'0 0.2
2017-Dec-15 05:25N 37°55' W 122°25'0 0.0
2017-Dec-15 05:00N 37°55' W 122°25'0 0.7
2017-Dec-15 04:30N 37°55' W 122°25'2 4.7
2017-Dec-15 04:00N 37°53' W 122°25'8 5.3
2017-Dec-15 02:30N 37°48' W 122°17'1 0.8
2017-Dec-15 01:00N 37°48' W 122°19'0 0.5
2017-Dec-15 00:31N 37°48' W 122°19'7 1.2
2017-Dec-14 18:30N 37°54' W 122°22'0 0.0
2017-Dec-14 17:51N 37°54' W 122°22'0 0.0
2017-Dec-14 17:30N 37°54' W 122°22'0 0.0
2017-Dec-14 16:59N 37°54' W 122°22'0 0.8
2017-Dec-14 16:30N 37°54' W 122°23'3 6.1
2017-Dec-14 16:00N 37°51' W 122°23'6 6.1
2017-Dec-14 15:00N 37°48' W 122°17'1 1.6
2017-Dec-14 14:30N 37°48' W 122°18'0 0.9
2017-Dec-14 14:00N 37°48' W 122°19'0 0.0
2017-Dec-14 13:31N 37°48' W 122°19'1 2.2
2017-Dec-14 13:00N 37°49' W 122°20'0 0.0
2017-Dec-14 12:30N 37°49' W 122°20'0 0.0
2017-Dec-14 12:01N 37°49' W 122°20'0 0.0
2017-Dec-14 11:31N 37°49' W 122°20'0 0.0
2017-Dec-14 11:01N 37°49' W 122°20'0 0.1
2017-Dec-14 10:30N 37°49' W 122°20'0 0.0
2017-Dec-14 10:00N 37°49' W 122°20'0 0.0
2017-Dec-14 09:30N 37°49' W 122°20'0 0.0
2017-Dec-14 09:00N 37°49' W 122°20'0 0.0
2017-Dec-14 08:30N 37°49' W 122°20'0 0.0
2017-Dec-14 08:00N 37°49' W 122°20'0 0.0
2017-Dec-14 07:31N 37°49' W 122°20'0 0.0
2017-Dec-14 07:00N 37°49' W 122°20'0 0.0
2017-Dec-14 06:30N 37°49' W 122°20'0 0.0
2017-Dec-14 06:00N 37°49' W 122°20'0 0.1
2017-Dec-14 05:30N 37°49' W 122°20'0 0.3
2017-Dec-14 05:00N 37°49' W 122°20'2 3.4
2017-Dec-14 04:30N 37°49' W 122°22'0 0.0
2017-Dec-14 04:00N 37°49' W 122°22'4 7.6
2017-Dec-14 03:30N 37°52' W 122°24'3 5.3
2017-Dec-14 03:00N 37°54' W 122°22'1 1.7
2017-Dec-14 02:29N 37°55' W 122°22'0 0.1
2017-Dec-14 02:00N 37°55' W 122°22'1 1.1
2017-Dec-14 01:30N 37°55' W 122°22'0 0.9
2017-Dec-14 01:00N 37°54' W 122°22'3 5.1
2017-Dec-14 00:30N 37°55' W 122°25'3 5.2
2017-Dec-14 00:01N 37°53' W 122°25'3 5.1
2017-Dec-13 23:30N 37°54' W 122°22'0 0.0
2017-Dec-13 23:00N 37°54' W 122°22'0 0.0
2017-Dec-13 22:27N 37°54' W 122°22'0 0.0
2017-Dec-13 22:00N 37°54' W 122°22'0 0.0
2017-Dec-13 21:30N 37°54' W 122°22'0 0.0
2017-Dec-13 21:00N 37°54' W 122°22'0 0.0
2017-Dec-13 20:30N 37°54' W 122°22'0 0.0
2017-Dec-13 20:00N 37°54' W 122°22'0 0.0
2017-Dec-13 19:27N 37°54' W 122°22'0 0.0
2017-Dec-13 18:57N 37°54' W 122°22'0 0.0
2017-Dec-13 18:18N 37°54' W 122°22'0 0.0
2017-Dec-13 18:00N 37°54' W 122°22'2 3.3
2017-Dec-13 17:30N 37°55' W 122°24'1 1.3
2017-Dec-13 16:58N 37°55' W 122°25'0 0.0
2017-Dec-13 16:28N 37°55' W 122°25'0 0.0
2017-Dec-13 15:58N 37°55' W 122°25'1 1.4
2017-Dec-13 15:29N 37°55' W 122°25'510.4
2017-Dec-13 15:00N 37°50' W 122°22'4 7.9
2017-Dec-13 14:30N 37°48' W 122°19'0 0.9
2017-Dec-13 14:00N 37°48' W 122°18'0 0.1
2017-Dec-13 13:31N 37°48' W 122°18'0 0.8
2017-Dec-13 13:01N 37°48' W 122°18'3 6.6
2017-Dec-13 12:31N 37°48' W 122°23'2 3.2
2017-Dec-13 12:01N 37°49' W 122°21'0 1.0
2017-Dec-13 11:30N 37°49' W 122°22'0 0.0
2017-Dec-13 11:00N 37°49' W 122°22'0 0.0
2017-Dec-13 10:30N 37°49' W 122°22'0 0.0
2017-Dec-13 10:01N 37°49' W 122°22'0 0.0
2017-Dec-13 09:30N 37°49' W 122°22'0 0.0
2017-Dec-13 09:00N 37°49' W 122°22'0 0.0
2017-Dec-13 08:30N 37°49' W 122°22'0 0.0
2017-Dec-13 08:00N 37°49' W 122°22'0 0.0
2017-Dec-13 07:30N 37°49' W 122°22'2 3.4
2017-Dec-13 07:01N 37°48' W 122°20'1 2.4
2017-Dec-13 06:31N 37°48' W 122°19'1 2.2
2017-Dec-13 06:01N 37°48' W 122°17'1 2.5
2017-Dec-13 05:31N 37°48' W 122°19'2 5.0
2017-Dec-13 05:00N 37°48' W 122°22'1 1.1
2017-Dec-13 04:30N 37°48' W 122°22'1 3.0
2017-Dec-13 04:00N 37°48' W 122°21'3 6.5
2017-Dec-13 03:30N 37°51' W 122°23'5 9.4
2017-Dec-13 03:00N 37°55' W 122°25'0 0.7
2017-Dec-13 02:26N 37°56' W 122°25'1 1.2
2017-Dec-13 01:59N 37°55' W 122°25'3 6.9
2017-Dec-13 01:30N 37°52' W 122°25'3 7.0
2017-Dec-13 01:01N 37°49' W 122°27'3 5.4
2017-Dec-13 00:31N 37°48' W 122°30'0 0.2
2017-Dec-13 00:00N 37°48' W 122°30'0 1.0
2017-Dec-12 23:30N 37°48' W 122°30'4 7.2
2017-Dec-12 23:00N 37°49' W 122°25'3 4.9
2017-Dec-12 22:25N 37°49' W 122°22'0 0.1
2017-Dec-12 21:58N 37°49' W 122°22'0 0.0
2017-Dec-12 21:25N 37°49' W 122°22'0 0.1
2017-Dec-12 20:58N 37°49' W 122°22'0 0.0
2017-Dec-12 20:28N 37°49' W 122°22'0 0.0
2017-Dec-12 19:58N 37°49' W 122°22'0 0.0
2017-Dec-12 19:29N 37°49' W 122°22'2 4.1
2017-Dec-12 19:01N 37°48' W 122°20'2 3.7
2017-Dec-12 18:31N 37°48' W 122°18'0 0.5
2017-Dec-12 18:00N 37°48' W 122°17'0 0.0
2017-Dec-12 17:31N 37°48' W 122°17'0 0.0
2017-Dec-12 17:00N 37°48' W 122°17'0 0.0
2017-Dec-12 16:31N 37°48' W 122°17'4 8.2
2017-Dec-12 16:00N 37°50' W 122°22'5 9.3
2017-Dec-12 15:31N 37°53' W 122°26'2 3.1
2017-Dec-12 15:01N 37°55' W 122°25'1 1.4
2017-Dec-12 14:22N 37°56' W 122°25'0 1.2
2017-Dec-12 13:59N 37°55' W 122°25'0 0.0
2017-Dec-12 13:29N 37°55' W 122°25'0 0.0
2017-Dec-12 12:59N 37°55' W 122°25'0 0.0
2017-Dec-12 12:11N 37°55' W 122°25'0 0.0
2017-Dec-12 11:56N 37°55' W 122°25'0 0.0
2017-Dec-12 11:26N 37°55' W 122°25'0 0.0
2017-Dec-12 10:59N 37°55' W 122°25'0 0.0
2017-Dec-12 10:29N 37°55' W 122°25'0 0.0
2017-Dec-12 09:56N 37°55' W 122°25'0 0.0
2017-Dec-12 09:29N 37°55' W 122°25'0 0.0
2017-Dec-12 08:59N 37°55' W 122°25'0 0.0
2017-Dec-12 08:29N 37°55' W 122°25'0 0.0
2017-Dec-12 07:59N 37°55' W 122°25'0 0.0
2017-Dec-12 07:29N 37°55' W 122°25'0 0.0
2017-Dec-12 06:59N 37°55' W 122°25'0 0.0
2017-Dec-12 06:26N 37°55' W 122°25'0 0.0
2017-Dec-12 05:59N 37°55' W 122°25'0 0.0
2017-Dec-12 05:26N 37°55' W 122°25'0 0.0
2017-Dec-12 04:56N 37°55' W 122°25'0 0.0
2017-Dec-12 04:26N 37°55' W 122°25'0 0.0
2017-Dec-12 03:59N 37°55' W 122°25'0 0.0
2017-Dec-12 03:29N 37°55' W 122°25'0 0.0
2017-Dec-12 02:59N 37°55' W 122°25'0 0.0
2017-Dec-12 02:29N 37°55' W 122°25'0 0.0
2017-Dec-12 01:56N 37°55' W 122°25'0 0.0
2017-Dec-12 01:29N 37°55' W 122°25'0 0.0
2017-Dec-12 00:59N 37°55' W 122°25'0 0.0
2017-Dec-12 00:23N 37°55' W 122°25'0 0.0
2017-Dec-11 23:59N 37°55' W 122°25'0 0.0
2017-Dec-11 23:29N 37°55' W 122°25'0 0.0
2017-Dec-11 22:59N 37°55' W 122°25'0 0.0
2017-Dec-11 22:23N 37°55' W 122°25'0 0.0
2017-Dec-11 21:53N 37°55' W 122°25'0 0.0
2017-Dec-11 21:29N 37°55' W 122°25'0 0.0
2017-Dec-11 20:56N 37°55' W 122°25'0 0.0
2017-Dec-11 20:29N 37°55' W 122°25'0 0.0
2017-Dec-11 19:59N 37°55' W 122°25'0 0.0
2017-Dec-11 19:26N 37°55' W 122°25'0 0.0
2017-Dec-11 18:59N 37°55' W 122°25'0 0.0
2017-Dec-11 18:29N 37°55' W 122°25'0 0.0
2017-Dec-11 17:59N 37°55' W 122°25'0 0.0
2017-Dec-11 17:29N 37°55' W 122°25'0 0.0
2017-Dec-11 16:59N 37°55' W 122°25'3 5.7
2017-Dec-11 16:31N 37°53' W 122°25'510.2
2017-Dec-11 16:00N 37°49' W 122°21'1 1.8
2017-Dec-11 15:31N 37°49' W 122°20'2 3.8
2017-Dec-11 15:01N 37°48' W 122°22'3 6.7
2017-Dec-11 14:31N 37°48' W 122°18'0 1.0
2017-Dec-11 14:01N 37°48' W 122°17'1 2.8
2017-Dec-11 13:31N 37°48' W 122°19'3 6.0
2017-Dec-11 13:00N 37°47' W 122°23'2 3.2
2017-Dec-11 12:30N 37°49' W 122°24'1 1.7
2017-Dec-11 12:01N 37°49' W 122°23'5 9.5
2017-Dec-11 11:30N 37°54' W 122°25'2 3.1
2017-Dec-11 11:00N 37°55' W 122°25'0 0.0
2017-Dec-11 10:28N 37°55' W 122°25'0 0.0
2017-Dec-11 10:01N 37°55' W 122°25'0 0.0
2017-Dec-11 09:31N 37°55' W 122°25'0 0.0
2017-Dec-11 09:00N 37°55' W 122°25'0 0.0
2017-Dec-11 08:30N 37°55' W 122°25'0 0.0
2017-Dec-11 08:00N 37°55' W 122°25'0 0.0
2017-Dec-11 07:27N 37°55' W 122°25'0 0.0
2017-Dec-11 07:00N 37°55' W 122°25'0 0.0
2017-Dec-11 06:30N 37°55' W 122°25'0 0.0
2017-Dec-11 06:01N 37°55' W 122°25'0 0.0
2017-Dec-11 05:30N 37°55' W 122°25'0 0.0
2017-Dec-11 05:00N 37°55' W 122°25'0 0.0
2017-Dec-11 04:28N 37°55' W 122°25'0 0.0
2017-Dec-11 03:57N 37°55' W 122°25'0 0.0
2017-Dec-11 03:30N 37°55' W 122°25'0 0.0
2017-Dec-11 03:01N 37°55' W 122°25'0 0.0
2017-Dec-11 02:30N 37°55' W 122°25'0 0.0
2017-Dec-11 02:00N 37°55' W 122°25'0 0.0
2017-Dec-11 01:30N 37°55' W 122°25'0 0.6
2017-Dec-11 01:00N 37°56' W 122°25'1 1.6
2017-Dec-11 00:30N 37°55' W 122°25'1 1.2
2017-Dec-10 23:50N 37°56' W 122°25'0 0.1
2017-Dec-10 23:30N 37°56' W 122°25'0 0.8
2017-Dec-10 22:58N 37°55' W 122°25'0 0.0
2017-Dec-10 22:25N 37°55' W 122°25'0 0.0
2017-Dec-10 21:58N 37°55' W 122°25'0 0.0
2017-Dec-10 21:28N 37°55' W 122°25'0 0.0
2017-Dec-10 20:58N 37°55' W 122°25'0 0.0
2017-Dec-10 20:28N 37°55' W 122°25'0 0.0
2017-Dec-10 19:58N 37°55' W 122°25'0 0.0
2017-Dec-10 19:28N 37°55' W 122°25'0 0.0
2017-Dec-10 18:55N 37°55' W 122°25'0 0.0
2017-Dec-10 18:28N 37°55' W 122°25'0 0.0
2017-Dec-10 17:58N 37°55' W 122°25'0 0.0
2017-Dec-10 17:28N 37°55' W 122°25'0 0.0
2017-Dec-10 16:58N 37°55' W 122°25'0 0.0
2017-Dec-10 16:28N 37°55' W 122°25'0 0.0
2017-Dec-10 15:58N 37°55' W 122°25'0 0.0
2017-Dec-10 15:30N 37°55' W 122°25'0 0.2
2017-Dec-10 15:01N 37°55' W 122°24'5 9.2
2017-Dec-10 14:30N 37°51' W 122°23'4 7.8
2017-Dec-10 14:00N 37°48' W 122°20'0 0.1
2017-Dec-10 13:30N 37°48' W 122°19'2 3.0
2017-Dec-10 13:00N 37°48' W 122°18'1 1.7
2017-Dec-10 12:30N 37°48' W 122°19'2 4.8
2017-Dec-10 12:00N 37°48' W 122°22'3 5.1
2017-Dec-10 11:30N 37°46' W 122°21'2 3.3
2017-Dec-10 11:00N 37°44' W 122°20'2 4.1
2017-Dec-10 10:31N 37°46' W 122°22'511.0
2017-Dec-10 10:00N 37°51' W 122°24'4 9.0
2017-Dec-10 09:30N 37°55' W 122°25'1 0.8
2017-Dec-10 08:47N 37°55' W 122°25'0 0.0
2017-Dec-10 08:28N 37°55' W 122°25'0 0.1
2017-Dec-10 08:00N 37°55' W 122°25'0 0.0
2017-Dec-10 07:30N 37°55' W 122°25'0 0.0
2017-Dec-10 07:00N 37°55' W 122°25'0 0.0
2017-Dec-10 06:30N 37°55' W 122°25'0 0.0
2017-Dec-10 06:00N 37°55' W 122°25'0 0.0
2017-Dec-10 05:24N 37°55' W 122°25'0 0.0
2017-Dec-10 04:54N 37°55' W 122°25'0 0.0
2017-Dec-10 04:30N 37°55' W 122°25'0 0.0
2017-Dec-10 04:00N 37°55' W 122°25'0 0.0
2017-Dec-10 03:30N 37°55' W 122°25'0 0.0
2017-Dec-10 02:48N 37°55' W 122°25'0 0.0
2017-Dec-10 02:30N 37°55' W 122°25'0 0.0
2017-Dec-10 02:00N 37°55' W 122°25'0 0.0
2017-Dec-10 01:24N 37°55' W 122°25'0 0.0
2017-Dec-10 01:00N 37°55' W 122°25'0 0.0
2017-Dec-10 00:27N 37°55' W 122°25'0 0.0
2017-Dec-10 00:00N 37°55' W 122°25'0 0.0
2017-Dec-09 23:30N 37°55' W 122°25'0 0.0
2017-Dec-09 22:57N 37°55' W 122°25'0 0.0
2017-Dec-09 22:30N 37°55' W 122°25'0 0.0
2017-Dec-09 22:00N 37°55' W 122°25'0 0.4
2017-Dec-09 21:03N 37°56' W 122°25'0 0.4
2017-Dec-09 20:45N 37°55' W 122°25'0 2.0
2017-Dec-09 20:30N 37°55' W 122°25'2 3.9
2017-Dec-09 20:00N 37°53' W 122°25'3 5.4
2017-Dec-09 19:31N 37°51' W 122°27'2 4.4
2017-Dec-09 19:00N 37°49' W 122°28'4 7.8
2017-Dec-09 18:30N 37°53' W 122°26'3 5.3
2017-Dec-09 17:57N 37°55' W 122°25'0 0.0
2017-Dec-09 17:30N 37°55' W 122°25'0 0.0
2017-Dec-09 16:57N 37°55' W 122°25'0 0.0
2017-Dec-09 16:30N 37°55' W 122°25'0 0.0
2017-Dec-09 16:00N 37°55' W 122°25'0 0.0
2017-Dec-09 15:15N 37°55' W 122°25'0 0.0
2017-Dec-09 14:57N 37°55' W 122°25'0 0.0
2017-Dec-09 14:30N 37°55' W 122°25'0 0.0
2017-Dec-09 13:57N 37°55' W 122°25'0 0.0
2017-Dec-09 13:30N 37°55' W 122°25'0 0.0
2017-Dec-09 13:00N 37°55' W 122°25'0 0.0
2017-Dec-09 12:30N 37°55' W 122°25'0 0.0
2017-Dec-09 12:00N 37°55' W 122°25'0 0.0
2017-Dec-09 11:30N 37°55' W 122°25'0 0.0
2017-Dec-09 11:00N 37°55' W 122°25'0 0.0
2017-Dec-09 10:30N 37°55' W 122°25'0 0.0
2017-Dec-09 10:00N 37°55' W 122°25'0 0.0
2017-Dec-09 09:30N 37°55' W 122°25'0 0.0
2017-Dec-09 08:57N 37°55' W 122°25'0 0.0
2017-Dec-09 08:30N 37°55' W 122°25'0 0.0
2017-Dec-09 08:00N 37°55' W 122°25'0 0.0
2017-Dec-09 07:30N 37°55' W 122°25'0 0.0
2017-Dec-09 07:00N 37°55' W 122°25'0 0.0
2017-Dec-09 06:30N 37°55' W 122°25'0 0.0
2017-Dec-09 05:57N 37°55' W 122°25'0 0.0
2017-Dec-09 05:30N 37°55' W 122°25'0 0.0
2017-Dec-09 05:00N 37°55' W 122°25'0 0.0
2017-Dec-09 04:30N 37°55' W 122°25'0 0.0
2017-Dec-09 04:00N 37°55' W 122°25'0 0.0
2017-Dec-09 03:30N 37°55' W 122°25'0 0.0
2017-Dec-09 03:00N 37°55' W 122°25'0 0.0
2017-Dec-09 02:30N 37°55' W 122°25'0 0.0
2017-Dec-09 01:57N 37°55' W 122°25'0 0.0
2017-Dec-09 01:30N 37°55' W 122°25'0 0.0
2017-Dec-09 01:00N 37°55' W 122°25'0 0.0
2017-Dec-09 00:31N 37°55' W 122°25'0 0.0
2017-Dec-09 00:01N 37°55' W 122°25'0 0.0
2017-Dec-08 23:31N 37°55' W 122°25'0 0.1
2017-Dec-08 23:01N 37°55' W 122°25'1 2.0
2017-Dec-08 22:30N 37°55' W 122°25'1 2.3
2017-Dec-08 22:00N 37°56' W 122°25'0 0.7
2017-Dec-08 21:30N 37°55' W 122°25'1 1.7
2017-Dec-08 21:01N 37°55' W 122°24'5 9.5
2017-Dec-08 20:31N 37°50' W 122°22'3 5.5
2017-Dec-08 20:01N 37°49' W 122°19'2 4.7
2017-Dec-08 19:31N 37°48' W 122°17'2 3.3
2017-Dec-08 19:01N 37°47' W 122°15'1 2.1
2017-Dec-08 18:30N 37°47' W 122°16'2 5.0
2017-Dec-08 18:01N 37°48' W 122°19'3 6.2
2017-Dec-08 17:31N 37°48' W 122°23'1 1.6
2017-Dec-08 17:01N 37°48' W 122°24'0 0.0
2017-Dec-08 16:30N 37°48' W 122°24'0 0.0
2017-Dec-08 16:00N 37°48' W 122°24'0 0.0
2017-Dec-08 15:30N 37°48' W 122°24'0 0.0
2017-Dec-08 15:00N 37°48' W 122°24'0 0.4
2017-Dec-08 14:31N 37°48' W 122°24'2 3.5
2017-Dec-08 14:01N 37°49' W 122°26'2 4.8
2017-Dec-08 13:30N 37°51' W 122°25'4 7.1
2017-Dec-08 13:01N 37°54' W 122°23'1 1.2
2017-Dec-08 12:29N 37°54' W 122°22'0 0.0
2017-Dec-08 11:59N 37°54' W 122°22'0 0.0
2017-Dec-08 11:29N 37°54' W 122°22'0 0.0
2017-Dec-08 10:59N 37°54' W 122°22'0 0.0
2017-Dec-08 10:29N 37°54' W 122°22'0 0.0
2017-Dec-08 09:59N 37°54' W 122°22'0 0.0
2017-Dec-08 09:29N 37°54' W 122°22'0 0.0
2017-Dec-08 08:59N 37°54' W 122°22'0 0.0
2017-Dec-08 08:29N 37°54' W 122°22'0 0.0
2017-Dec-08 07:59N 37°54' W 122°22'0 0.0
2017-Dec-08 07:26N 37°54' W 122°22'0 0.0
2017-Dec-08 06:50N 37°54' W 122°22'0 0.0
2017-Dec-08 06:26N 37°54' W 122°22'0 0.0
2017-Dec-08 03:56N 37°54' W 122°22'0 0.0
2017-Dec-08 03:11N 37°54' W 122°22'0 0.0
2017-Dec-08 02:59N 37°54' W 122°22'0 0.0
2017-Dec-08 02:26N 37°54' W 122°22'0 0.0
2017-Dec-08 01:53N 37°54' W 122°22'0 0.0
2017-Dec-08 01:26N 37°54' W 122°22'0 0.0
2017-Dec-08 00:59N 37°54' W 122°22'0 0.0
2017-Dec-08 00:26N 37°54' W 122°22'0 0.0
2017-Dec-07 23:50N 37°54' W 122°22'0 0.0
2017-Dec-07 23:14N 37°54' W 122°22'0 0.0
2017-Dec-07 22:59N 37°54' W 122°22'0 0.0
2017-Dec-07 21:50N 37°54' W 122°22'0 0.0
2017-Dec-07 20:29N 37°54' W 122°22'0 0.0
2017-Dec-07 19:56N 37°54' W 122°22'0 0.0
2017-Dec-07 19:26N 37°54' W 122°22'0 0.0
2017-Dec-07 18:56N 37°54' W 122°22'0 0.0
2017-Dec-07 18:26N 37°54' W 122°22'0 0.0
2017-Dec-07 17:56N 37°54' W 122°22'0 0.0
2017-Dec-07 17:20N 37°54' W 122°22'0 0.0
2017-Dec-07 16:59N 37°54' W 122°22'0 0.0
2017-Dec-07 16:26N 37°54' W 122°22'0 0.0
2017-Dec-07 15:53N 37°54' W 122°22'0 0.0
2017-Dec-07 15:08N 37°54' W 122°22'0 0.0
2017-Dec-07 14:56N 37°54' W 122°22'0 0.0
2017-Dec-07 14:29N 37°54' W 122°22'0 0.0
2017-Dec-07 13:45N 37°54' W 122°22'1 4.6
2017-Dec-07 13:30N 37°54' W 122°24'5 9.3
2017-Dec-07 13:00N 37°51' W 122°28'3 6.7
2017-Dec-07 12:30N 37°49' W 122°31'2 3.9
2017-Dec-07 12:00N 37°49' W 122°29'4 7.8
2017-Dec-07 11:30N 37°52' W 122°25'4 7.1
2017-Dec-07 11:00N 37°55' W 122°25'1 1.0
2017-Dec-07 10:30N 37°55' W 122°25'0 0.1
2017-Dec-07 10:00N 37°55' W 122°25'0 0.0
2017-Dec-07 09:30N 37°55' W 122°25'0 0.1
2017-Dec-07 09:00N 37°55' W 122°25'0 0.2
2017-Dec-07 08:30N 37°55' W 122°25'0 0.0
2017-Dec-07 07:59N 37°55' W 122°25'0 0.0
2017-Dec-07 07:29N 37°55' W 122°25'0 0.0
2017-Dec-07 06:41N 37°55' W 122°25'0 0.0
2017-Dec-07 06:23N 37°55' W 122°25'0 0.0
2017-Dec-07 05:56N 37°55' W 122°25'0 0.0
2017-Dec-07 05:29N 37°55' W 122°25'0 0.0
2017-Dec-07 04:50N 37°55' W 122°25'0 0.0
2017-Dec-07 04:29N 37°55' W 122°25'2 4.7
2017-Dec-07 04:00N 37°53' W 122°25'510.8
2017-Dec-07 03:30N 37°48' W 122°22'2 4.3
2017-Dec-07 02:59N 37°46' W 122°20'0 0.0
2017-Dec-07 02:30N 37°46' W 122°20'0 0.0
2017-Dec-07 02:00N 37°46' W 122°20'0 0.0
2017-Dec-07 01:30N 37°46' W 122°20'0 0.0
2017-Dec-07 01:00N 37°46' W 122°20'2 3.7
2017-Dec-07 00:30N 37°48' W 122°19'0 0.9
2017-Dec-07 00:00N 37°48' W 122°19'1 2.6
2017-Dec-06 23:30N 37°48' W 122°17'2 3.8
2017-Dec-06 23:00N 37°48' W 122°20'3 5.9
2017-Dec-06 22:30N 37°49' W 122°23'1 3.0
2017-Dec-06 22:01N 37°48' W 122°22'1 2.2
2017-Dec-06 21:30N 37°49' W 122°22'0 0.0
2017-Dec-06 21:00N 37°49' W 122°22'  

Dump ship's entire track history